logo
Search for airport 
image banner adimage banner adimage banner ad
image banner ad

FAELLI - Ellisras

Located in , South Africa

ICAO - , IATA -

Data provided by Airmate  

General information

Coordinates: S23°43'37" E27°41'17"
Elevation is 2798 feet MSL.
 
View others Airports in Limpopo

Operational data

Special qualification required
Current time UTC:
Current local time:
Weather at : - ( 0 km )
METAR: KQFX 140410Z AUTO 20006G14KT 9999 CLR 28/07 A2999 RMK A02 TSNO
View NOTAMs / SUP AIP / TFR affecting this airport [VIEW]
Communications frequencies: [VIEW]

Runways:

RWY identifierQFULength (ft)Width (ft)SurfaceLDA (ft)
0950°718598ASPH
27230°718598ASPH

Airport contact information

Address: South Africa

Other aviation service providers

Flight schools

Indigo Helicopter

Indigo Helicopter
gerhard@indigohelicopters.co.za+27865284234
+27716331885

Satellite view of FAELLI